createdAt,value
2022-11-08T00:00:21.509Z,44.83
2022-11-08T00:02:49.199Z,45.93
2022-11-08T00:05:34.577Z,46.33
2022-11-08T00:08:21.714Z,44.50
2022-11-08T00:11:07.081Z,47.33
2022-11-08T00:13:52.232Z,45.30
2022-11-08T00:16:21.124Z,44.37
2022-11-08T00:18:48.677Z,42.30
2022-11-08T00:21:16.239Z,42.40
2022-11-08T00:23:44.504Z,43.47
2022-11-08T00:26:12.069Z,41.87
2022-11-08T00:28:39.628Z,42.57
2022-11-08T00:31:07.772Z,42.40
2022-11-08T00:33:37.361Z,44.23
2022-11-08T00:36:05.569Z,42.03
2022-11-08T00:38:33.117Z,42.40
2022-11-08T00:41:00.709Z,43.13
2022-11-08T00:43:28.275Z,40.90
2022-11-08T00:45:55.804Z,41.67
2022-11-08T00:48:23.335Z,40.60
2022-11-08T00:50:52.248Z,41.30
2022-11-08T00:53:19.850Z,39.53
2022-11-08T00:55:47.426Z,41.07
2022-11-08T00:58:15.185Z,40.73
2022-11-08T01:00:43.024Z,41.47
2022-11-08T01:03:19.664Z,39.77
2022-11-08T01:05:47.663Z,39.80
2022-11-08T01:08:17.873Z,39.03
2022-11-08T01:10:47.645Z,39.90
2022-11-08T01:13:16.269Z,39.27
2022-11-08T01:15:45.221Z,40.10
2022-11-08T01:18:14.743Z,39.80
2022-11-08T01:20:43.531Z,40.70
2022-11-08T01:23:12.022Z,40.33
2022-11-08T01:25:42.493Z,40.97
2022-11-08T01:28:10.860Z,39.60
2022-11-08T01:30:39.250Z,40.57
2022-11-08T01:33:07.515Z,40.43
2022-11-08T01:35:36.396Z,39.70
2022-11-08T01:38:05.824Z,39.30
2022-11-08T01:40:34.257Z,40.07
2022-11-08T01:43:32.329Z,39.73
2022-11-08T01:46:36.261Z,40.23
2022-11-08T01:49:39.254Z,39.13
2022-11-08T01:52:24.445Z,39.43
2022-11-08T01:55:01.424Z,41.80
2022-11-08T01:57:34.351Z,41.43
2022-11-08T02:00:07.297Z,39.93
2022-11-08T02:02:36.553Z,38.40
2022-11-08T02:05:07.180Z,40.30
2022-11-08T02:07:35.733Z,38.87
2022-11-08T02:10:04.491Z,38.73
2022-11-08T02:12:32.063Z,39.90
2022-11-08T02:15:00.255Z,39.57
2022-11-08T02:17:29.148Z,39.50
2022-11-08T02:19:56.728Z,40.73
2022-11-08T02:22:30.024Z,39.50
2022-11-08T02:25:00.237Z,39.47
2022-11-08T02:27:28.216Z,38.63
2022-11-08T02:29:57.419Z,39.83
2022-11-08T02:32:25.892Z,39.00
2022-11-08T02:34:57.269Z,38.33
2022-11-08T02:37:26.456Z,38.73
2022-11-08T02:39:53.992Z,40.17
2022-11-08T02:42:22.884Z,38.73
2022-11-08T02:44:50.447Z,39.23
2022-11-08T02:47:18.005Z,39.60
2022-11-08T02:49:45.610Z,38.70
2022-11-08T02:52:13.142Z,39.17
2022-11-08T02:54:40.683Z,40.30
2022-11-08T02:57:08.220Z,42.07
2022-11-08T02:59:37.117Z,41.47
2022-11-08T03:02:04.813Z,39.73
2022-11-08T03:04:32.454Z,40.57
2022-11-08T03:07:00.046Z,40.67
2022-11-08T03:09:27.994Z,39.97
2022-11-08T03:11:55.531Z,40.53
2022-11-08T03:14:23.489Z,44.30
2022-11-08T03:16:52.376Z,40.90
2022-11-08T03:19:19.906Z,40.13
2022-11-08T03:21:47.469Z,40.53
2022-11-08T03:24:15.041Z,39.37
2022-11-08T03:26:42.580Z,40.70
2022-11-08T03:29:10.360Z,39.87
2022-11-08T03:31:37.891Z,38.47
2022-11-08T03:34:06.794Z,39.00
2022-11-08T03:36:34.337Z,39.70
2022-11-08T03:39:01.896Z,41.40
2022-11-08T03:41:29.441Z,38.90
2022-11-08T03:43:57.024Z,39.43
2022-11-08T03:46:24.588Z,38.43
2022-11-08T03:48:52.121Z,38.93
2022-11-08T03:51:21.000Z,39.87
2022-11-08T03:53:48.532Z,39.87
2022-11-08T03:56:16.064Z,36.50
2022-11-08T03:58:43.612Z,38.73
2022-11-08T04:01:11.341Z,39.13
2022-11-08T04:03:38.947Z,39.17
2022-11-08T04:06:07.040Z,39.23
2022-11-08T04:08:36.152Z,39.67
2022-11-08T04:11:17.613Z,40.20
2022-11-08T04:14:02.693Z,40.43
2022-11-08T04:16:32.071Z,39.77
2022-11-08T04:19:17.707Z,40.93
2022-11-08T04:21:46.444Z,39.47
2022-11-08T04:24:15.680Z,39.73
2022-11-08T04:26:43.316Z,38.70
2022-11-08T04:29:11.588Z,37.80
2022-11-08T04:31:39.134Z,39.20
2022-11-08T04:34:07.015Z,38.97
2022-11-08T04:36:34.939Z,38.77
2022-11-08T04:39:02.570Z,39.80
2022-11-08T04:41:31.481Z,40.33
2022-11-08T04:43:59.553Z,40.03
2022-11-08T04:46:28.708Z,39.57
2022-11-08T04:48:57.989Z,39.77
2022-11-08T04:51:27.729Z,38.93
2022-11-08T04:53:56.478Z,40.90
2022-11-08T04:56:24.953Z,40.13
2022-11-08T04:58:56.081Z,40.90
2022-11-08T05:01:25.880Z,41.13
2022-11-08T05:03:54.741Z,41.67
2022-11-08T05:06:24.756Z,43.70
2022-11-08T05:08:53.033Z,42.60
2022-11-08T05:11:22.875Z,40.90
2022-11-08T05:13:52.069Z,40.50
2022-11-08T05:16:22.764Z,40.40
2022-11-08T05:18:50.659Z,43.07
2022-11-08T05:21:38.063Z,40.87
2022-11-08T05:24:08.316Z,41.67
2022-11-08T05:26:37.305Z,42.57
2022-11-08T05:29:05.481Z,41.00
2022-11-08T05:31:34.409Z,41.77
2022-11-08T05:34:02.048Z,42.87
2022-11-08T05:36:29.901Z,41.80
2022-11-08T05:38:57.739Z,41.33
2022-11-08T05:41:26.687Z,42.20
2022-11-08T05:43:55.967Z,42.60
2022-11-08T05:46:24.587Z,43.83
2022-11-08T05:48:54.132Z,41.33
2022-11-08T05:51:21.781Z,41.17
2022-11-08T05:53:49.561Z,43.57
2022-11-08T05:56:17.572Z,42.97
2022-11-08T05:58:45.476Z,42.20
2022-11-08T06:01:15.032Z,40.50
2022-11-08T06:03:42.907Z,41.10
2022-11-08T06:06:13.181Z,41.80
2022-11-08T06:08:44.989Z,42.23
2022-11-08T06:11:17.826Z,42.33
2022-11-08T06:13:45.509Z,41.87
2022-11-08T06:16:15.178Z,43.03
2022-11-08T06:18:43.309Z,43.30
2022-11-08T06:21:14.489Z,42.90
2022-11-08T06:23:42.083Z,43.07
2022-11-08T06:26:10.247Z,42.77
2022-11-08T06:28:38.350Z,45.47
2022-11-08T06:31:06.636Z,43.40
2022-11-08T06:33:34.220Z,44.60
2022-11-08T06:36:02.053Z,44.20
2022-11-08T06:38:31.081Z,42.33
2022-11-08T06:41:00.576Z,42.40
2022-11-08T06:43:28.551Z,42.30
2022-11-08T06:46:00.291Z,41.30
2022-11-08T06:48:32.378Z,42.17
2022-11-08T06:51:03.011Z,39.93
2022-11-08T06:53:32.513Z,39.70
2022-11-08T06:56:00.231Z,40.00
2022-11-08T06:58:27.782Z,40.97
2022-11-08T07:00:55.392Z,41.93
2022-11-08T07:03:22.952Z,41.67
2022-11-08T07:05:50.476Z,42.07
2022-11-08T07:08:23.344Z,40.30
2022-11-08T07:10:53.055Z,41.20
2022-11-08T07:13:21.405Z,41.63
2022-11-08T07:15:49.321Z,40.90
2022-11-08T07:18:19.454Z,43.70
2022-11-08T07:20:48.004Z,40.67
2022-11-08T07:23:15.752Z,42.07
2022-11-08T07:25:43.317Z,42.83
2022-11-08T07:28:15.953Z,41.00
2022-11-08T07:30:43.616Z,42.33
2022-11-08T07:33:11.160Z,41.77
2022-11-08T07:35:38.784Z,41.10
2022-11-08T07:38:06.625Z,38.90
2022-11-08T07:40:34.912Z,39.47
2022-11-08T07:43:11.727Z,40.77
2022-11-08T07:45:44.481Z,41.50
2022-11-08T07:48:13.941Z,40.77
2022-11-08T07:50:42.756Z,39.50
2022-11-08T07:53:11.228Z,39.37
2022-11-08T07:55:38.958Z,41.00
2022-11-08T07:58:07.019Z,39.90
2022-11-08T08:00:36.659Z,40.23
2022-11-08T08:03:07.409Z,39.40
2022-11-08T08:05:36.949Z,38.67
2022-11-08T08:08:04.944Z,39.53
2022-11-08T08:10:33.394Z,38.87
2022-11-08T08:13:01.647Z,39.33
2022-11-08T08:15:29.220Z,39.53
2022-11-08T08:17:56.816Z,39.87
2022-11-08T08:20:25.750Z,39.97
2022-11-08T08:22:53.333Z,40.90
2022-11-08T08:25:21.346Z,40.53
2022-11-08T08:27:49.425Z,40.90
2022-11-08T08:30:20.254Z,40.97
2022-11-08T08:33:02.166Z,42.83
2022-11-08T08:35:38.199Z,39.80
2022-11-08T08:38:07.425Z,41.70
2022-11-08T08:40:35.532Z,40.73
2022-11-08T08:43:04.994Z,40.23
2022-11-08T08:45:33.309Z,39.23
2022-11-08T08:48:01.452Z,39.67
2022-11-08T08:50:31.174Z,39.70
2022-11-08T08:53:00.268Z,40.97
2022-11-08T08:55:28.453Z,40.17
2022-11-08T08:57:56.328Z,39.97
2022-11-08T09:03:13.365Z,40.27
2022-11-08T09:05:43.921Z,38.60
2022-11-08T09:08:14.159Z,38.10
2022-11-08T09:10:42.233Z,38.13
2022-11-08T09:13:09.895Z,39.03
2022-11-08T09:15:39.229Z,39.20
2022-11-08T09:18:07.350Z,40.33
2022-11-08T09:20:35.014Z,39.80
2022-11-08T09:23:03.075Z,40.73
2022-11-08T09:25:32.466Z,39.83
2022-11-08T09:28:00.129Z,40.43
2022-11-08T09:30:28.000Z,41.07
2022-11-08T09:33:03.178Z,40.40
2022-11-08T09:35:31.499Z,38.23
2022-11-08T09:37:59.441Z,38.70
2022-11-08T09:40:38.175Z,37.70
2022-11-08T09:43:25.917Z,38.73
2022-11-08T09:45:55.977Z,37.40
2022-11-08T09:48:29.049Z,39.00
2022-11-08T09:51:00.107Z,37.90
2022-11-08T09:53:35.683Z,37.07
2022-11-08T09:56:12.506Z,39.00
2022-11-08T09:58:46.693Z,39.03
2022-11-08T10:01:15.053Z,39.07
2022-11-08T10:03:48.149Z,38.50
2022-11-08T10:06:37.910Z,39.57
2022-11-08T10:09:21.093Z,37.53
2022-11-08T10:12:02.977Z,39.10
2022-11-08T10:14:52.569Z,38.00
2022-11-08T10:17:47.369Z,36.80
2022-11-08T10:20:25.268Z,38.10
2022-11-08T10:22:59.997Z,37.67
2022-11-08T10:25:34.572Z,37.17
2022-11-08T10:28:04.705Z,37.70
2022-11-08T10:30:35.502Z,38.63
2022-11-08T10:33:03.793Z,37.10
2022-11-08T10:35:39.154Z,37.53
2022-11-08T10:38:17.738Z,37.17
2022-11-08T10:40:51.598Z,36.40
2022-11-08T10:43:28.998Z,36.80
2022-11-08T10:45:56.602Z,35.60
2022-11-08T10:48:24.287Z,35.50
2022-11-08T10:50:53.409Z,34.53
2022-11-08T10:53:25.388Z,33.90
2022-11-08T10:55:59.532Z,34.50
2022-11-08T10:58:37.454Z,32.90
2022-11-08T11:01:08.540Z,31.83
2022-11-08T11:03:36.099Z,31.70
2022-11-08T11:06:05.453Z,30.97
2022-11-08T11:08:33.639Z,32.10
2022-11-08T11:11:23.443Z,31.63
2022-11-08T11:14:06.819Z,30.37
2022-11-08T11:16:34.750Z,31.00
2022-11-08T11:19:03.557Z,30.73
2022-11-08T11:21:36.653Z,28.27
2022-11-08T11:24:10.242Z,28.87
2022-11-08T11:26:42.736Z,28.63
2022-11-08T11:29:20.428Z,30.90
2022-11-08T11:31:50.741Z,27.70
2022-11-08T11:34:36.565Z,28.47
2022-11-08T11:37:13.477Z,31.23
2022-11-08T11:39:49.480Z,27.27
2022-11-08T11:42:44.441Z,26.57
2022-11-08T11:45:18.457Z,26.37
2022-11-08T11:47:47.943Z,24.60
2022-11-08T11:50:30.660Z,23.80
2022-11-08T11:53:00.130Z,25.30
2022-11-08T11:55:35.633Z,24.40
2022-11-08T11:58:17.561Z,24.00
2022-11-08T12:00:57.265Z,24.97
2022-11-08T12:03:44.949Z,23.10
2022-11-08T12:06:22.273Z,24.30
2022-11-08T12:09:05.809Z,22.23
2022-11-08T12:11:45.313Z,22.53
2022-11-08T12:14:33.666Z,22.10
2022-11-08T12:17:14.479Z,22.43
2022-11-08T12:20:07.978Z,21.53
2022-11-08T12:22:50.117Z,21.63
2022-11-08T12:25:24.177Z,19.47
2022-11-08T12:27:54.825Z,19.97
2022-11-08T12:30:27.844Z,20.23
2022-11-08T12:33:20.779Z,18.50
2022-11-08T12:36:01.950Z,19.10
2022-11-08T12:38:35.735Z,18.67
2022-11-08T12:41:13.291Z,18.47
2022-11-08T12:44:00.529Z,18.77
2022-11-08T12:46:32.681Z,17.80
2022-11-08T12:49:28.496Z,17.60
2022-11-08T12:52:09.544Z,17.40
2022-11-08T12:54:42.453Z,17.77
2022-11-08T12:57:13.151Z,16.33
2022-11-08T12:59:43.763Z,16.20
2022-11-08T13:02:19.480Z,15.57
2022-11-08T13:04:57.086Z,16.87
2022-11-08T13:07:43.457Z,15.93
2022-11-08T13:10:22.950Z,15.27
2022-11-08T13:13:06.635Z,15.40
2022-11-08T13:15:34.463Z,15.00
2022-11-08T13:18:23.813Z,15.10
2022-11-08T13:20:52.972Z,14.70
2022-11-08T13:23:28.570Z,15.40
2022-11-08T13:26:11.513Z,14.97
2022-11-08T13:28:42.435Z,15.00
2022-11-08T13:31:33.181Z,14.43
2022-11-08T13:34:35.722Z,14.30
2022-11-08T13:37:20.789Z,14.37
2022-11-08T13:40:02.352Z,15.10
2022-11-08T13:42:58.309Z,14.00
2022-11-08T13:45:32.132Z,15.17
2022-11-08T13:48:06.271Z,15.10
2022-11-08T13:50:47.050Z,14.10
2022-11-08T13:53:41.812Z,13.80
2022-11-08T13:56:34.936Z,13.83
2022-11-08T13:59:02.557Z,14.70
2022-11-08T14:01:58.277Z,13.70
2022-11-08T14:04:30.578Z,14.80
2022-11-08T14:07:06.178Z,14.23
2022-11-08T14:09:44.630Z,13.20
2022-11-08T14:12:16.925Z,13.60
2022-11-08T14:14:52.859Z,13.50
2022-11-08T14:17:44.927Z,13.33
2022-11-08T14:20:20.705Z,13.90
2022-11-08T14:22:50.429Z,13.73
2022-11-08T14:25:27.404Z,14.23
2022-11-08T14:27:54.971Z,13.67
2022-11-08T14:30:24.312Z,13.40
2022-11-08T14:33:07.896Z,13.33
2022-11-08T14:35:35.555Z,13.93
2022-11-08T14:38:03.133Z,14.07
2022-11-08T14:40:32.190Z,14.03
2022-11-08T14:42:59.784Z,13.17
2022-11-08T14:45:29.790Z,13.70
2022-11-08T14:48:03.977Z,12.90
2022-11-08T14:50:34.321Z,14.70
2022-11-08T14:53:21.442Z,14.23
2022-11-08T14:55:56.788Z,14.00
2022-11-08T14:58:29.026Z,14.60
2022-11-08T15:00:57.469Z,13.30
2022-11-08T15:03:29.908Z,14.17
2022-11-08T15:06:00.171Z,15.13
2022-11-08T15:08:30.918Z,14.17
2022-11-08T15:11:03.251Z,13.93
2022-11-08T15:13:34.630Z,13.93
2022-11-08T15:16:05.074Z,13.60
2022-11-08T15:18:36.490Z,14.03
2022-11-08T15:21:06.281Z,13.93
2022-11-08T15:23:42.280Z,14.57
2022-11-08T15:26:23.534Z,13.80
2022-11-08T15:29:03.386Z,13.70
2022-11-08T15:31:33.446Z,13.73
2022-11-08T15:34:01.036Z,14.93
2022-11-08T15:36:34.440Z,13.53
2022-11-08T15:39:03.835Z,14.63
2022-11-08T15:41:38.073Z,14.70
2022-11-08T15:44:14.288Z,13.10
2022-11-08T15:46:42.429Z,12.60
2022-11-08T15:49:21.648Z,12.33
2022-11-08T15:51:50.140Z,12.60
2022-11-08T15:54:18.687Z,13.37
2022-11-08T15:56:49.432Z,12.90
2022-11-08T15:59:21.475Z,13.70
2022-11-08T16:01:55.917Z,13.80
2022-11-08T16:04:23.947Z,14.10
2022-11-08T16:06:51.751Z,14.03
2022-11-08T16:09:19.445Z,12.80
2022-11-08T16:11:49.584Z,12.80
2022-11-08T16:14:20.421Z,13.33
2022-11-08T16:16:48.501Z,13.23
2022-11-08T16:19:19.758Z,13.13
2022-11-08T16:21:47.665Z,12.40
2022-11-08T16:24:15.727Z,12.40
2022-11-08T16:26:45.049Z,13.10
2022-11-08T16:29:21.001Z,13.50
2022-11-08T16:31:48.789Z,12.53
2022-11-08T16:34:16.479Z,12.87
2022-11-08T16:36:45.897Z,13.10
2022-11-08T16:39:16.564Z,13.50
2022-11-08T16:41:44.401Z,13.60
2022-11-08T16:44:12.690Z,13.97
2022-11-08T16:46:42.029Z,14.50
2022-11-08T16:49:20.219Z,13.97
2022-11-08T16:51:48.053Z,13.60
2022-11-08T16:54:19.152Z,13.30
2022-11-08T16:56:46.696Z,12.60
2022-11-08T16:59:14.840Z,13.87
2022-11-08T17:01:44.382Z,13.53
2022-11-08T17:04:12.144Z,13.80
2022-11-08T17:06:39.772Z,13.40
2022-11-08T17:09:07.374Z,13.50
2022-11-08T17:11:35.039Z,13.90
2022-11-08T17:14:03.048Z,13.20
2022-11-08T17:16:31.044Z,13.70
2022-11-08T17:18:59.964Z,14.43
2022-11-08T17:21:44.284Z,14.47
2022-11-08T17:24:17.028Z,14.03
2022-11-08T17:26:48.859Z,14.10
2022-11-08T17:29:16.440Z,14.20
2022-11-08T17:31:44.025Z,14.43
2022-11-08T17:34:13.062Z,13.97
2022-11-08T17:36:40.736Z,13.77
2022-11-08T17:39:08.356Z,13.67
2022-11-08T17:41:35.901Z,13.70
2022-11-08T17:44:03.461Z,13.40
2022-11-08T17:46:31.216Z,13.50
2022-11-08T17:48:58.756Z,13.80
2022-11-08T17:51:27.645Z,14.13
2022-11-08T17:53:55.214Z,14.37
2022-11-08T17:56:22.788Z,13.40
2022-11-08T17:58:50.340Z,14.13
2022-11-08T18:01:18.175Z,14.20
2022-11-08T18:03:45.877Z,15.03
2022-11-08T18:06:14.957Z,14.37
2022-11-08T18:08:43.944Z,14.10
2022-11-08T18:11:11.594Z,14.50
2022-11-08T18:13:39.235Z,13.47
2022-11-08T18:16:08.364Z,14.57
2022-11-08T18:18:35.977Z,14.50
2022-11-08T18:21:03.633Z,13.80
2022-11-08T18:23:31.217Z,14.53
2022-11-08T18:26:00.129Z,15.00
2022-11-08T18:28:27.988Z,14.27
2022-11-08T18:30:55.526Z,14.13
2022-11-08T18:33:23.184Z,15.17
2022-11-08T18:35:50.794Z,14.20
2022-11-08T18:38:18.328Z,14.13
2022-11-08T18:40:46.420Z,13.60
2022-11-08T18:43:15.438Z,14.33
2022-11-08T18:45:43.417Z,13.90
2022-11-08T18:48:10.944Z,13.70
2022-11-08T18:50:38.523Z,14.23
2022-11-08T18:53:07.027Z,13.93
2022-11-08T18:55:34.727Z,15.10
2022-11-08T18:58:03.368Z,13.90
2022-11-08T19:00:32.469Z,14.10
2022-11-08T19:03:01.861Z,14.90
2022-11-08T19:05:29.484Z,14.27
2022-11-08T19:07:57.061Z,14.40
2022-11-08T19:10:24.619Z,15.57
2022-11-08T19:12:52.189Z,14.60
2022-11-08T19:15:19.741Z,14.83
2022-11-08T19:17:53.618Z,14.20
2022-11-08T19:20:23.836Z,13.97
2022-11-08T19:22:53.812Z,14.03
2022-11-08T19:25:21.401Z,14.20
2022-11-08T19:27:49.027Z,13.77
2022-11-08T19:30:16.630Z,14.30
2022-11-08T19:32:44.169Z,14.90
2022-11-08T19:35:13.145Z,13.27
2022-11-08T19:37:40.873Z,13.40
2022-11-08T19:40:09.782Z,13.33
2022-11-08T19:42:37.363Z,13.57
2022-11-08T19:45:05.363Z,13.50
2022-11-08T19:47:34.584Z,14.10
2022-11-08T19:50:02.144Z,14.10
2022-11-08T19:52:31.034Z,14.57
2022-11-08T19:54:58.592Z,14.37
2022-11-08T19:57:27.241Z,14.40
2022-11-08T19:59:54.785Z,14.87
2022-11-08T20:02:22.343Z,14.70
2022-11-08T20:04:49.894Z,14.57
2022-11-08T20:07:17.541Z,15.27
2022-11-08T20:09:46.486Z,15.87
2022-11-08T20:12:15.074Z,14.47
2022-11-08T20:14:42.647Z,15.20
2022-11-08T20:17:10.223Z,14.23
2022-11-08T20:19:38.032Z,14.47
2022-11-08T20:22:05.874Z,14.40
2022-11-08T20:24:33.702Z,13.60
2022-11-08T20:27:02.742Z,13.90
2022-11-08T20:29:30.545Z,13.40
2022-11-08T20:31:58.123Z,13.50
2022-11-08T20:34:25.869Z,15.27
2022-11-08T20:36:53.490Z,15.27
2022-11-08T20:39:21.186Z,15.23
2022-11-08T20:41:48.895Z,15.20
2022-11-08T20:44:20.001Z,14.37
2022-11-08T20:46:47.590Z,15.80
2022-11-08T20:49:15.177Z,14.70
2022-11-08T20:51:42.773Z,15.37
2022-11-08T20:54:11.426Z,15.60
2022-11-08T20:56:39.496Z,15.63
2022-11-08T20:59:07.196Z,14.77
2022-11-08T21:01:36.762Z,14.90
2022-11-08T21:04:04.491Z,15.13
2022-11-08T21:06:36.050Z,14.73
2022-11-08T21:09:30.122Z,13.93
2022-11-08T21:11:52.681Z,15.20
2022-11-08T21:14:20.313Z,15.70
2022-11-08T21:19:36.730Z,16.10
2022-11-08T21:22:16.197Z,15.50
2022-11-08T21:24:44.613Z,15.03
2022-11-08T21:27:12.937Z,14.97
2022-11-08T21:29:40.574Z,15.97
2022-11-08T21:32:09.473Z,15.43
2022-11-08T21:34:37.016Z,15.50
2022-11-08T21:37:04.597Z,16.20
2022-11-08T21:39:32.145Z,15.43
2022-11-08T21:41:59.681Z,15.60
2022-11-08T21:44:27.236Z,15.50
2022-11-08T21:46:54.798Z,15.47
2022-11-08T21:49:23.813Z,15.10
2022-11-08T21:51:51.388Z,15.67
2022-11-08T21:54:18.936Z,15.03
2022-11-08T21:56:46.504Z,16.60
2022-11-08T21:59:14.265Z,15.63
2022-11-08T22:01:42.336Z,15.53
2022-11-08T22:04:09.885Z,16.30
2022-11-08T22:06:41.432Z,15.63
2022-11-08T22:09:11.219Z,16.03
2022-11-08T22:11:38.765Z,15.60
2022-11-08T22:14:06.529Z,16.57
2022-11-08T22:16:34.134Z,16.17
2022-11-08T22:19:05.884Z,16.33
2022-11-08T22:21:41.072Z,16.30
2022-11-08T22:24:12.121Z,16.27
2022-11-08T22:26:41.019Z,16.70
2022-11-08T22:29:08.971Z,16.40
2022-11-08T22:31:36.803Z,16.40
2022-11-08T22:34:05.206Z,16.60
2022-11-08T22:36:33.116Z,17.87
2022-11-08T22:39:02.125Z,17.60
2022-11-08T22:41:31.144Z,17.17
2022-11-08T22:43:58.794Z,16.93
2022-11-08T22:46:26.351Z,17.60
2022-11-08T22:48:53.990Z,17.60
2022-11-08T22:51:21.553Z,18.10
2022-11-08T22:53:49.125Z,17.57
2022-11-08T22:56:16.661Z,16.90
2022-11-08T22:58:45.573Z,16.90
2022-11-08T23:01:15.272Z,17.57
2022-11-08T23:03:45.672Z,17.50
2022-11-08T23:06:13.426Z,17.90
2022-11-08T23:08:41.180Z,17.70
2022-11-08T23:11:27.008Z,18.30
2022-11-08T23:14:13.579Z,17.93
2022-11-08T23:16:44.740Z,18.67
2022-11-08T23:19:32.163Z,18.57
2022-11-08T23:22:18.443Z,18.80
2022-11-08T23:24:46.038Z,18.47
2022-11-08T23:27:32.509Z,18.40
2022-11-08T23:30:18.988Z,18.97
2022-11-08T23:32:49.404Z,20.17
2022-11-08T23:35:18.409Z,21.17
2022-11-08T23:37:45.985Z,19.33
2022-11-08T23:40:33.025Z,20.17
2022-11-08T23:43:25.397Z,20.57
2022-11-08T23:45:54.410Z,21.73
2022-11-08T23:48:22.127Z,21.10
2022-11-08T23:50:51.073Z,21.77
2022-11-08T23:53:19.603Z,21.13
2022-11-08T23:55:47.624Z,21.40
2022-11-08T23:58:15.792Z,22.13
